WetterOnline ( https://www.wetteronline.de )

Wetter aktuell Bad Doberan

Aktuelles Wetter: Rostock-Warnemünde (10m)

6-stündlich | Neueste Meldungen
Ortszeit Temperatur Wetter
Sa, 07.12. 13:00 8.7° C leicht bewölkt
Sa, 07.12. 7:00 8.4° C leichter Regen
Sa, 07.12. 1:00 6.8° C bedeckt
Fr, 06.12. 19:00 5.4° C bedeckt
Fr, 06.12. 13:00 6.7° C bedeckt
Fr, 06.12. 7:00 5.1° C bedeckt
Fr, 06.12. 1:00 2.5° C wolkig
Do, 05.12. 19:00 3.2° C bewölkt
Ortszeit Temperatur Wetter
Sa, 07.12. 18:00 7.9° C wolkig
Sa, 07.12. 17:40 7.8° C bewölkt
Sa, 07.12. 17:30 7.6° C wolkig
Sa, 07.12. 17:20 7.6° C wolkig
Sa, 07.12. 17:10 7.5° C wolkig
Sa, 07.12. 17:00 7.7° C leicht bewölkt
Sa, 07.12. 16:50 7.7° C leicht bewölkt
Sa, 07.12. 16:30 7.9° C wolkig
Sa, 07.12. 16:00 8.5° C bewölkt
Ortszeit Relative Feuchte Sichtweite
Sa, 07.12. 13:00 79% 45 km
Sa, 07.12. 7:00 91% 20 km
Sa, 07.12. 1:00 93% 22 km
Fr, 06.12. 19:00 93% 15 km
Fr, 06.12. 13:00 86% 28 km
Fr, 06.12. 7:00 86% 12 km
Fr, 06.12. 1:00 84% 13 km
Do, 05.12. 19:00 84% 18 km
Ortszeit Relative Feuchte Sichtweite
Sa, 07.12. 18:00 82% 45 km
Sa, 07.12. 17:40 82% -
Sa, 07.12. 17:30 82% 45 km
Sa, 07.12. 17:20 82% -
Sa, 07.12. 17:10 84% -
Sa, 07.12. 17:00 82% 40 km
Sa, 07.12. 16:50 82% -
Sa, 07.12. 16:30 84% 35 km
Sa, 07.12. 16:00 81% 35 km
Ortszeit Niederschlagsmenge Niederschlagsart
Sa, 07.12. 13:00 2 l/m2 in 6 Std. Regen
Sa, 07.12. 7:00 0.2 l/m2 in 12 Std. Regen
Sa, 07.12. 1:00 0.1 l/m2 in 6 Std. Regen
Fr, 06.12. 19:00 0.1 l/m2 in 12 Std. Regen
Fr, 06.12. 13:00 0.0 l/m2 in 6 Std. -
Fr, 06.12. 7:00 0.2 l/m2 in 12 Std. Regen
Fr, 06.12. 1:00 0.0 l/m2 in 6 Std. -
Do, 05.12. 19:00 0.0 l/m2 in 12 Std. -
Ortszeit Niederschlagsmenge Niederschlagsart
Sa, 07.12. 18:00 0.0 l/m2 in 1 Std. -
Sa, 07.12. 17:40 keine Meldung -
Sa, 07.12. 17:30 0.0 l/m2 in 1 Std. -
Sa, 07.12. 17:20 keine Meldung -
Sa, 07.12. 17:10 keine Meldung -
Sa, 07.12. 17:00 0.0 l/m2 in 1 Std. -
Sa, 07.12. 16:50 keine Meldung -
Sa, 07.12. 16:30 0.0 l/m2 in 1 Std. -
Sa, 07.12. 16:00 0.0 l/m2 in 1 Std. -
Ortszeit Stärke Spitze Richtung
km/h Bft. km/h Grad Sektor
Sa, 07.12. 13:00 28 4 56 260° W
Sa, 07.12. 7:00 22 4 44 250° W
Sa, 07.12. 1:00 25 4 47 200° S
Fr, 06.12. 19:00 22 4 46 200° S
Fr, 06.12. 13:00 24 4 48 210° SW
Fr, 06.12. 7:00 24 4 56 200° S
Fr, 06.12. 1:00 24 4 48 200° S
Do, 05.12. 19:00 17 3 31 200° S
Ortszeit Stärke Spitze Richtung
km/h Bft. km/h Grad Sektor
Sa, 07.12. 18:00 33 5 50 260° W
Sa, 07.12. 17:40 33 5 - 260° W
Sa, 07.12. 17:30 30 5 44 270° W
Sa, 07.12. 17:20 30 5 - 270° W
Sa, 07.12. 17:10 31 5 - 270° W
Sa, 07.12. 17:00 26 4 48 270° W
Sa, 07.12. 16:50 26 4 - 270° W
Sa, 07.12. 16:30 28 4 48 270° W
Sa, 07.12. 16:00 28 4 43 260° W
Ortszeit Untergrenze Bedeckung Gattung
total tief tief mittel hoch
Sa, 07.12. 13:00 750 m 5/8 3/8 - - -
Sa, 07.12. 7:00 330 m 8/8 8/8 - - -
Sa, 07.12. 1:00 240 m 8/8 8/8 - - -
Fr, 06.12. 19:00 240 m 8/8 8/8 - - -
Fr, 06.12. 13:00 300 m 8/8 8/8 - - -
Fr, 06.12. 7:00 360 m 8/8 8/8 - - -
Fr, 06.12. 1:00 420 m 8/8 1/8 - - -
Do, 05.12. 19:00 360 m 7/8 7/8 - - -
Ortszeit Bedeckungsgrad in Achtel und Wolkenuntergrenze
Sa, 07.12. 18:00 3(1410m) 8(6900m) 8(8400m)
Sa, 07.12. 17:40 7(6900m)
Sa, 07.12. 17:30 4(7200m) 7(8100m) 7(8700m)
Sa, 07.12. 17:20 4(7200m) 7(8100m) 7(8700m)
Sa, 07.12. 17:10 5(8100m) 6(9000m) 7(9000m)
Sa, 07.12. 17:00 5(9000m) 6(9000m) 6(9000m)
Sa, 07.12. 16:50 5(9000m) 6(9000m)
Sa, 07.12. 16:30 2(6000m) 8(8400m) 8(9000m)
Sa, 07.12. 16:00 4(750m) 7(1800m) 7(5100m)
Ortszeit Luftdruck NN (hPa) Tendenz (hPa in 3 Std.)
Sa, 07.12. 13:00 1003 + 2,2
Sa, 07.12. 7:00 997 + 0,7
Sa, 07.12. 1:00 998 - 1,7
Fr, 06.12. 19:00 1001 - 1,2
Fr, 06.12. 13:00 1004 - 1,0
Fr, 06.12. 7:00 1005 - 0,8
Fr, 06.12. 1:00 1009 - 3,1
Do, 05.12. 19:00 1014 - 1,0
Ortszeit Luftdruck NN (hPa) Tendenz (hPa in 3 Std.)
Sa, 07.12. 18:00 1006 + 2,0
Sa, 07.12. 17:40 1006 keine Meldung
Sa, 07.12. 17:30 1006 + 2,1
Sa, 07.12. 17:20 1006 keine Meldung
Sa, 07.12. 17:10 1006 keine Meldung
Sa, 07.12. 17:00 1006 + 2,1
Sa, 07.12. 16:50 1006 keine Meldung
Sa, 07.12. 16:30 1005 + 1,8
Sa, 07.12. 16:00 1005 + 1,5
Ortszeit Schneehöhe (cm)
Sa, 07.12. 13:00 0
Sa, 07.12. 7:00 0
Sa, 07.12. 1:00 0
Fr, 06.12. 19:00 0
Fr, 06.12. 13:00 0
Fr, 06.12. 7:00 0
Fr, 06.12. 1:00 0
Do, 05.12. 19:00 0
Ortszeit Schneehöhe (cm)
Sa, 07.12. 18:00 0
Sa, 07.12. 17:40 0
Sa, 07.12. 17:30 0
Sa, 07.12. 17:20 0
Sa, 07.12. 17:10 0
Sa, 07.12. 17:00 0
Sa, 07.12. 16:50 0
Sa, 07.12. 16:30 0
Sa, 07.12. 16:00 0
Link zu dieser Seite / Seite empfehlen

Das Wetter in ...